createdAt,value
2023-02-01T00:00:42.650Z,0.00
2023-02-01T00:01:42.601Z,0.00
2023-02-01T00:02:42.595Z,0.00
2023-02-01T00:03:42.579Z,0.00
2023-02-01T00:04:42.561Z,0.00
2023-02-01T00:05:42.534Z,0.00
2023-02-01T00:06:42.541Z,0.00
2023-02-01T00:07:42.520Z,0.00
2023-02-01T00:08:42.499Z,0.00
2023-02-01T00:09:42.518Z,0.00
2023-02-01T00:10:42.486Z,0.00
2023-02-01T00:11:42.463Z,0.00
2023-02-01T00:12:42.473Z,0.00
2023-02-01T00:13:42.461Z,0.00
2023-02-01T00:14:42.486Z,0.00
2023-02-01T00:15:42.441Z,0.00
2023-02-01T00:16:42.412Z,0.00
2023-02-01T00:17:42.425Z,0.00
2023-02-01T00:18:42.417Z,0.00
2023-02-01T00:19:42.429Z,0.00
2023-02-01T00:20:42.415Z,0.00
2023-02-01T00:21:42.365Z,0.00
2023-02-01T00:22:42.352Z,0.00
2023-02-01T00:23:42.370Z,0.00
2023-02-01T00:24:42.322Z,0.00
2023-02-01T00:25:42.346Z,0.00
2023-02-01T00:26:42.434Z,0.00
2023-02-01T00:27:42.339Z,0.00
2023-02-01T00:28:42.290Z,0.00
2023-02-01T00:29:42.290Z,0.00
2023-02-01T00:30:42.292Z,0.00
2023-02-01T00:31:42.357Z,0.00
2023-02-01T00:32:42.263Z,0.00
2023-02-01T00:33:42.251Z,0.00
2023-02-01T00:34:42.218Z,0.00
2023-02-01T00:35:42.215Z,0.00
2023-02-01T00:36:42.192Z,0.00
2023-02-01T00:37:42.226Z,0.00
2023-02-01T00:38:42.224Z,0.00
2023-02-01T00:39:42.174Z,0.00
2023-02-01T00:40:42.150Z,0.00
2023-02-01T00:41:42.157Z,0.00
2023-02-01T00:42:42.929Z,0.00
2023-02-01T00:43:42.179Z,0.00
2023-02-01T00:44:42.137Z,0.00
2023-02-01T00:45:42.124Z,0.00
2023-02-01T00:46:42.154Z,0.00
2023-02-01T00:47:42.125Z,0.00
2023-02-01T00:48:42.083Z,0.00
2023-02-01T00:49:42.082Z,0.00
2023-02-01T00:50:42.204Z,0.00
2023-02-01T00:51:42.058Z,0.00
2023-02-01T00:52:42.082Z,0.00
2023-02-01T00:53:42.113Z,0.00
2023-02-01T00:54:42.049Z,0.00
2023-02-01T00:55:42.026Z,0.00
2023-02-01T00:56:42.042Z,0.00
2023-02-01T00:57:42.049Z,0.00
2023-02-01T00:58:44.379Z,0.00
2023-02-01T00:59:42.016Z,0.00
2023-02-01T01:00:42.024Z,0.00
2023-02-01T01:01:42.079Z,0.00
2023-02-01T01:02:41.924Z,0.00
2023-02-01T01:03:41.904Z,0.00
2023-02-01T01:04:41.961Z,0.00
2023-02-01T01:05:42.468Z,0.00
2023-02-01T01:06:41.894Z,0.00
2023-02-01T01:07:41.869Z,0.00
2023-02-01T01:08:41.855Z,0.00
2023-02-01T01:09:41.858Z,0.00
2023-02-01T01:10:41.856Z,0.00
2023-02-01T01:11:41.838Z,0.00
2023-02-01T01:12:41.826Z,0.00
2023-02-01T01:13:41.831Z,0.00
2023-02-01T01:14:41.804Z,0.00
2023-02-01T01:15:41.789Z,0.00
2023-02-01T01:16:41.793Z,0.00
2023-02-01T01:17:41.762Z,0.00
2023-02-01T01:18:41.752Z,0.00
2023-02-01T01:19:41.748Z,0.00
2023-02-01T01:20:41.750Z,0.00
2023-02-01T01:21:41.736Z,0.00
2023-02-01T01:22:41.783Z,0.00
2023-02-01T01:23:41.703Z,0.00
2023-02-01T01:24:41.702Z,0.00
2023-02-01T01:25:41.683Z,0.00
2023-02-01T01:26:41.704Z,0.00
2023-02-01T01:27:41.659Z,0.00
2023-02-01T01:28:41.737Z,0.00
2023-02-01T01:29:41.647Z,0.00
2023-02-01T01:30:41.655Z,0.00
2023-02-01T01:31:41.686Z,0.00
2023-02-01T01:32:41.671Z,0.00
2023-02-01T01:33:41.593Z,0.00
2023-02-01T01:34:41.587Z,0.00
2023-02-01T01:35:41.581Z,0.00
2023-02-01T01:36:41.572Z,0.00
2023-02-01T01:37:41.556Z,0.00
2023-02-01T01:38:41.589Z,0.00
2023-02-01T01:39:41.583Z,0.00
2023-02-01T01:40:41.541Z,0.00
2023-02-01T01:41:41.540Z,0.00
2023-02-01T01:42:41.530Z,0.00
2023-02-01T01:43:41.518Z,0.00
2023-02-01T01:44:41.501Z,0.00
2023-02-01T01:45:41.476Z,0.00
2023-02-01T01:46:41.616Z,0.00
2023-02-01T01:47:41.452Z,0.00
2023-02-01T01:48:41.498Z,0.00
2023-02-01T01:49:41.455Z,0.00
2023-02-01T01:50:41.441Z,0.00
2023-02-01T01:51:41.404Z,0.00
2023-02-01T01:52:41.419Z,0.00
2023-02-01T01:53:41.395Z,0.00
2023-02-01T01:54:41.426Z,0.00
2023-02-01T01:55:41.359Z,0.00
2023-02-01T01:56:41.370Z,0.00
2023-02-01T01:57:41.406Z,0.00
2023-02-01T01:58:41.327Z,0.00
2023-02-01T01:59:41.337Z,0.00
2023-02-01T02:00:41.349Z,0.00
2023-02-01T02:01:41.332Z,0.00
2023-02-01T02:02:41.298Z,0.00
2023-02-01T02:03:41.309Z,0.00
2023-02-01T02:04:41.287Z,0.00
2023-02-01T02:05:41.260Z,0.00
2023-02-01T02:06:41.257Z,0.00
2023-02-01T02:07:41.234Z,0.00
2023-02-01T02:08:41.227Z,0.00
2023-02-01T02:09:45.545Z,0.00
2023-02-01T02:10:41.232Z,0.00
2023-02-01T02:11:41.190Z,0.00
2023-02-01T02:12:41.208Z,0.00
2023-02-01T02:13:41.197Z,0.00
2023-02-01T02:14:41.244Z,0.00
2023-02-01T02:15:41.142Z,0.00
2023-02-01T02:16:41.169Z,0.00
2023-02-01T02:17:41.144Z,0.00
2023-02-01T02:18:41.117Z,0.00
2023-02-01T02:19:41.147Z,0.00
2023-02-01T02:20:41.111Z,0.00
2023-02-01T02:21:41.091Z,0.00
2023-02-01T02:22:41.100Z,0.00
2023-02-01T02:23:41.074Z,0.00
2023-02-01T02:24:41.056Z,0.00
2023-02-01T02:25:41.078Z,0.00
2023-02-01T02:26:41.076Z,0.00
2023-02-01T02:27:41.025Z,0.00
2023-02-01T02:28:41.014Z,0.00
2023-02-01T02:29:41.002Z,0.00
2023-02-01T02:30:41.021Z,0.00
2023-02-01T02:31:41.035Z,0.00
2023-02-01T02:32:40.976Z,0.00
2023-02-01T02:33:40.981Z,0.00
2023-02-01T02:34:40.973Z,0.00
2023-02-01T02:35:40.963Z,0.00
2023-02-01T02:36:40.955Z,0.00
2023-02-01T02:37:40.966Z,0.00
2023-02-01T02:38:40.898Z,0.00
2023-02-01T02:39:40.889Z,0.00
2023-02-01T02:40:40.886Z,0.00
2023-02-01T02:41:40.876Z,0.00
2023-02-01T02:42:41.701Z,0.00
2023-02-01T02:43:40.871Z,0.00
2023-02-01T02:44:40.837Z,0.00
2023-02-01T02:45:40.881Z,0.00
2023-02-01T02:46:40.826Z,0.00
2023-02-01T02:47:40.824Z,0.00
2023-02-01T02:48:40.816Z,0.00
2023-02-01T02:49:40.788Z,0.00
2023-02-01T02:50:40.776Z,0.00
2023-02-01T02:51:40.778Z,0.00
2023-02-01T02:52:40.773Z,0.00
2023-02-01T02:53:40.778Z,0.00
2023-02-01T02:54:40.811Z,0.00
2023-02-01T02:55:40.738Z,0.00
2023-02-01T02:56:40.716Z,0.00
2023-02-01T02:57:40.702Z,0.00
2023-02-01T02:58:40.716Z,0.00
2023-02-01T02:59:40.700Z,0.00
2023-02-01T03:00:40.662Z,0.00
2023-02-01T03:01:40.658Z,0.00
2023-02-01T03:02:40.718Z,0.00
2023-02-01T03:03:40.657Z,0.00
2023-02-01T03:04:40.650Z,0.00
2023-02-01T03:05:40.671Z,0.00
2023-02-01T03:06:40.602Z,0.00
2023-02-01T03:07:40.587Z,0.00
2023-02-01T03:08:40.615Z,0.00
2023-02-01T03:09:40.613Z,0.00
2023-02-01T03:10:40.564Z,0.00
2023-02-01T03:11:40.570Z,0.00
2023-02-01T03:12:40.561Z,0.00
2023-02-01T03:13:40.531Z,0.00
2023-02-01T03:14:40.553Z,0.00
2023-02-01T03:15:40.520Z,0.00
2023-02-01T03:16:40.510Z,0.00
2023-02-01T03:17:40.530Z,0.00
2023-02-01T03:18:40.484Z,0.00
2023-02-01T03:19:40.470Z,0.00
2023-02-01T03:20:40.504Z,0.00
2023-02-01T03:21:40.506Z,0.00
2023-02-01T03:22:40.436Z,0.00
2023-02-01T03:23:40.446Z,0.00
2023-02-01T03:24:40.399Z,0.00
2023-02-01T03:25:40.403Z,0.00
2023-02-01T03:26:40.427Z,0.00
2023-02-01T03:27:40.396Z,0.00
2023-02-01T03:28:40.388Z,0.00
2023-02-01T03:29:40.382Z,0.00
2023-02-01T03:30:40.393Z,0.00
2023-02-01T03:31:40.394Z,0.00
2023-02-01T03:32:40.372Z,0.00
2023-02-01T03:33:40.316Z,0.00
2023-02-01T03:34:40.307Z,0.00
2023-02-01T03:35:40.341Z,0.00
2023-02-01T03:36:40.364Z,0.00
2023-02-01T03:37:40.327Z,0.00
2023-02-01T03:38:40.361Z,0.00
2023-02-01T03:39:40.355Z,0.00
2023-02-01T03:40:43.159Z,0.00
2023-02-01T03:41:41.285Z,0.00
2023-02-01T03:42:40.287Z,0.00
2023-02-01T03:43:40.357Z,0.00
2023-02-01T03:44:40.218Z,0.00
2023-02-01T03:45:40.315Z,0.00
2023-02-01T03:46:40.193Z,0.00
2023-02-01T03:47:40.221Z,0.00
2023-02-01T03:48:40.157Z,0.00
2023-02-01T03:49:40.176Z,0.00
2023-02-01T03:50:40.187Z,0.00
2023-02-01T03:51:40.178Z,0.00
2023-02-01T03:52:40.145Z,0.00
2023-02-01T03:53:40.116Z,0.00
2023-02-01T03:54:40.127Z,0.00
2023-02-01T03:55:40.102Z,0.00
2023-02-01T03:56:40.086Z,0.00
2023-02-01T03:57:40.100Z,0.00
2023-02-01T03:58:40.075Z,0.00
2023-02-01T03:59:40.080Z,0.00
2023-02-01T04:00:40.054Z,0.00
2023-02-01T04:01:40.057Z,0.00
2023-02-01T04:02:40.052Z,0.00
2023-02-01T04:03:40.023Z,0.00
2023-02-01T04:04:40.047Z,0.00
2023-02-01T04:05:39.996Z,0.00
2023-02-01T04:06:40.046Z,0.00
2023-02-01T04:07:39.986Z,0.00
2023-02-01T04:08:39.970Z,0.00
2023-02-01T04:09:40.247Z,0.00
2023-02-01T04:10:39.938Z,0.00
2023-02-01T04:11:39.944Z,0.00
2023-02-01T04:12:39.951Z,0.00
2023-02-01T04:13:39.915Z,0.00
2023-02-01T04:14:39.924Z,0.00
2023-02-01T04:15:39.881Z,0.00
2023-02-01T04:16:39.899Z,0.00
2023-02-01T04:19:45.751Z,0.00
2023-02-01T04:20:46.701Z,0.00
2023-02-01T04:21:46.667Z,0.00
2023-02-01T04:22:47.474Z,0.00
2023-02-01T04:23:46.662Z,0.00
2023-02-01T04:24:46.687Z,0.00
2023-02-01T04:25:46.636Z,0.00
2023-02-01T04:26:46.698Z,0.00
2023-02-01T04:27:46.627Z,0.00
2023-02-01T04:28:46.606Z,0.00
2023-02-01T04:29:46.594Z,0.00
2023-02-01T04:30:46.759Z,0.00
2023-02-01T04:31:46.670Z,0.00
2023-02-01T04:32:46.554Z,0.00
2023-02-01T04:33:46.540Z,0.00
2023-02-01T04:34:46.523Z,0.00
2023-02-01T04:35:46.533Z,0.00
2023-02-01T04:36:47.428Z,0.00
2023-02-01T04:37:46.496Z,0.00
2023-02-01T04:38:46.498Z,0.00
2023-02-01T04:39:46.503Z,0.00
2023-02-01T04:40:46.467Z,0.00
2023-02-01T04:41:46.456Z,0.00
2023-02-01T04:42:46.473Z,0.00
2023-02-01T04:43:46.456Z,0.00
2023-02-01T04:44:46.477Z,0.00
2023-02-01T04:45:46.448Z,0.00
2023-02-01T04:46:46.411Z,0.00
2023-02-01T04:47:46.405Z,0.00
2023-02-01T04:48:46.403Z,0.00
2023-02-01T04:49:46.388Z,0.00
2023-02-01T04:50:46.366Z,0.00
2023-02-01T04:51:46.389Z,0.00
2023-02-01T04:52:46.381Z,0.00
2023-02-01T04:53:46.332Z,0.00
2023-02-01T04:54:46.346Z,0.00
2023-02-01T04:55:46.318Z,0.00
2023-02-01T04:56:46.344Z,0.00
2023-02-01T04:57:46.288Z,0.00
2023-02-01T04:58:46.298Z,0.00
2023-02-01T04:59:46.290Z,0.00
2023-02-01T05:00:46.260Z,0.00
2023-02-01T05:01:48.614Z,0.00
2023-02-01T05:02:46.261Z,0.00
2023-02-01T05:03:46.236Z,0.00
2023-02-01T05:04:46.307Z,0.00
2023-02-01T05:05:46.204Z,0.00
2023-02-01T05:06:46.225Z,0.00
2023-02-01T05:07:46.206Z,0.00
2023-02-01T05:08:46.177Z,0.00
2023-02-01T05:09:46.168Z,0.00
2023-02-01T05:10:46.152Z,0.00
2023-02-01T05:11:46.284Z,0.00
2023-02-01T05:12:46.155Z,0.00
2023-02-01T05:13:46.124Z,0.00
2023-02-01T05:14:46.106Z,0.00
2023-02-01T05:15:46.119Z,0.00
2023-02-01T05:16:46.109Z,0.00
2023-02-01T05:17:46.105Z,0.00
2023-02-01T05:18:46.055Z,0.00
2023-02-01T05:19:46.078Z,4.00
2023-02-01T05:20:46.038Z,0.00
2023-02-01T05:21:46.023Z,0.00
2023-02-01T05:22:46.074Z,0.00
2023-02-01T05:23:46.004Z,0.00
2023-02-01T05:24:45.997Z,0.00
2023-02-01T05:25:45.989Z,0.00
2023-02-01T05:26:46.047Z,0.00
2023-02-01T05:27:45.969Z,0.00
2023-02-01T05:28:45.983Z,0.00
2023-02-01T05:29:45.948Z,0.00
2023-02-01T05:30:46.090Z,0.00
2023-02-01T05:31:46.090Z,0.00
2023-02-01T05:32:45.919Z,0.00
2023-02-01T05:33:45.969Z,0.00
2023-02-01T05:34:45.920Z,0.00
2023-02-01T05:35:45.890Z,0.00
2023-02-01T05:36:45.896Z,0.00
2023-02-01T05:37:45.888Z,0.00
2023-02-01T05:38:45.869Z,0.00
2023-02-01T05:39:45.866Z,0.00
2023-02-01T05:40:45.861Z,0.00
2023-02-01T05:41:45.850Z,0.00
2023-02-01T05:42:45.848Z,0.00
2023-02-01T05:43:45.811Z,0.00
2023-02-01T05:44:45.803Z,0.00
2023-02-01T05:45:45.818Z,0.00
2023-02-01T05:46:45.761Z,0.00
2023-02-01T05:47:45.763Z,0.00
2023-02-01T05:48:45.812Z,0.00
2023-02-01T05:49:45.732Z,0.00
2023-02-01T05:50:45.798Z,0.00
2023-02-01T05:51:45.724Z,0.00
2023-02-01T05:52:45.706Z,0.00
2023-02-01T05:53:45.718Z,0.00
2023-02-01T05:54:45.691Z,0.00
2023-02-01T05:55:45.687Z,0.00
2023-02-01T05:56:45.691Z,0.00
2023-02-01T05:57:45.679Z,0.00
2023-02-01T05:58:45.648Z,0.00
2023-02-01T05:59:45.736Z,0.00
2023-02-01T06:00:45.638Z,0.00
2023-02-01T06:01:45.599Z,0.00
2023-02-01T06:02:45.619Z,0.00
2023-02-01T06:03:45.771Z,0.00
2023-02-01T06:04:45.629Z,0.00
2023-02-01T06:05:45.567Z,0.00
2023-02-01T06:06:45.613Z,0.00
2023-02-01T06:07:45.546Z,0.00
2023-02-01T06:08:45.537Z,0.00
2023-02-01T06:09:45.533Z,0.00
2023-02-01T06:10:45.522Z,0.00
2023-02-01T06:11:45.861Z,0.00
2023-02-01T06:12:45.494Z,0.00
2023-02-01T06:13:45.509Z,0.00
2023-02-01T06:14:45.496Z,0.00
2023-02-01T06:15:45.485Z,0.00
2023-02-01T06:16:45.445Z,0.00
2023-02-01T06:17:45.425Z,0.00
2023-02-01T06:18:45.427Z,0.00
2023-02-01T06:19:45.453Z,0.00
2023-02-01T06:20:45.405Z,0.00
2023-02-01T06:21:45.398Z,0.00
2023-02-01T06:22:45.379Z,0.00
2023-02-01T06:23:45.389Z,0.00
2023-02-01T06:24:45.373Z,0.00
2023-02-01T06:25:45.388Z,0.00
2023-02-01T06:26:45.424Z,0.00
2023-02-01T06:27:45.338Z,0.00
2023-02-01T06:28:45.348Z,0.00
2023-02-01T06:29:45.328Z,0.00
2023-02-01T06:30:45.340Z,0.00
2023-02-01T06:31:45.370Z,0.00
2023-02-01T06:32:45.284Z,0.00
2023-02-01T06:33:45.291Z,0.00
2023-02-01T06:34:45.265Z,0.00
2023-02-01T06:35:45.353Z,0.00
2023-02-01T06:36:45.242Z,0.00
2023-02-01T06:37:45.232Z,4.00
2023-02-01T06:38:45.217Z,4.00
2023-02-01T06:39:45.267Z,4.00
2023-02-01T06:40:45.220Z,4.00
2023-02-01T06:41:45.176Z,4.00
2023-02-01T06:42:45.162Z,4.00
2023-02-01T06:43:45.151Z,0.00
2023-02-01T06:44:45.243Z,0.00
2023-02-01T06:45:45.135Z,4.00
2023-02-01T06:46:45.206Z,4.00
2023-02-01T06:47:45.153Z,4.00
2023-02-01T06:48:45.128Z,4.00
2023-02-01T06:49:45.118Z,0.00
2023-02-01T06:50:45.115Z,4.00
2023-02-01T06:51:45.080Z,4.00
2023-02-01T06:52:45.080Z,4.00
2023-02-01T06:53:45.047Z,4.00
2023-02-01T06:54:45.071Z,8.00
2023-02-01T06:55:45.035Z,8.00
2023-02-01T06:56:45.040Z,8.00
2023-02-01T06:57:45.034Z,8.00
2023-02-01T06:58:45.013Z,8.00
2023-02-01T06:59:45.021Z,12.00
2023-02-01T07:00:45.012Z,12.00
2023-02-01T07:01:45.080Z,8.00
2023-02-01T07:02:45.017Z,12.00
2023-02-01T07:03:44.957Z,12.00
2023-02-01T07:04:44.953Z,12.00
2023-02-01T07:05:44.932Z,16.00
2023-02-01T07:06:44.951Z,16.00
2023-02-01T07:07:44.907Z,20.00
2023-02-01T07:08:44.926Z,20.00
2023-02-01T07:09:44.875Z,24.00
2023-02-01T07:10:44.868Z,28.00
2023-02-01T07:11:44.870Z,28.00
2023-02-01T07:12:44.866Z,32.00
2023-02-01T07:13:44.872Z,36.00
2023-02-01T07:14:44.860Z,36.00
2023-02-01T07:15:44.833Z,40.00
2023-02-01T07:16:44.825Z,44.00
2023-02-01T07:17:44.805Z,48.00
2023-02-01T07:18:44.812Z,52.00
2023-02-01T07:19:44.819Z,60.00
2023-02-01T07:20:44.774Z,64.00
2023-02-01T07:21:44.771Z,68.00
2023-02-01T07:22:44.768Z,76.00
2023-02-01T07:23:44.744Z,80.00
2023-02-01T07:24:44.743Z,88.00
2023-02-01T07:25:44.749Z,92.00
2023-02-01T07:26:44.836Z,104.00
2023-02-01T07:27:44.705Z,108.00
2023-02-01T07:28:44.691Z,120.00
2023-02-01T07:29:44.702Z,128.00
2023-02-01T07:30:44.740Z,140.00
2023-02-01T07:31:44.654Z,148.00
2023-02-01T07:32:45.177Z,160.00
2023-02-01T07:33:44.641Z,168.00
2023-02-01T07:34:44.607Z,176.00
2023-02-01T07:35:44.628Z,188.00
2023-02-01T07:36:44.606Z,204.00
2023-02-01T07:37:44.606Z,216.00
2023-02-01T07:38:44.578Z,224.00
2023-02-01T07:39:44.557Z,240.00
2023-02-01T07:40:44.577Z,256.00
2023-02-01T07:41:44.579Z,264.00
2023-02-01T07:42:44.571Z,280.00
2023-02-01T07:43:44.525Z,296.00
2023-02-01T07:44:44.509Z,312.00
2023-02-01T07:45:44.570Z,328.00
2023-02-01T07:46:44.508Z,348.00
2023-02-01T07:47:44.508Z,360.00
2023-02-01T07:48:44.467Z,376.00
2023-02-01T07:49:44.458Z,388.00
2023-02-01T07:50:44.453Z,408.00
2023-02-01T07:51:44.444Z,424.00
2023-02-01T07:52:44.433Z,448.00
2023-02-01T07:53:44.462Z,468.00
2023-02-01T07:54:44.418Z,488.00
2023-02-01T07:55:44.491Z,500.00
2023-02-01T07:56:44.459Z,516.00
2023-02-01T07:57:44.407Z,532.00
2023-02-01T07:58:44.452Z,556.00
2023-02-01T07:59:44.449Z,572.00
2023-02-01T08:00:44.415Z,596.00
2023-02-01T08:01:44.360Z,620.00
2023-02-01T08:02:44.448Z,644.00
2023-02-01T08:03:45.253Z,668.00
2023-02-01T08:04:44.380Z,696.00
2023-02-01T08:05:44.290Z,724.00
2023-02-01T08:06:44.290Z,740.00
2023-02-01T08:07:44.278Z,756.00
2023-02-01T08:08:44.372Z,776.00
2023-02-01T08:09:44.275Z,792.00
2023-02-01T08:10:44.351Z,816.00
2023-02-01T08:11:44.276Z,840.00
2023-02-01T08:12:44.221Z,876.00
2023-02-01T08:13:44.246Z,904.00
2023-02-01T08:14:44.199Z,928.00
2023-02-01T08:15:44.216Z,972.00
2023-02-01T08:16:44.248Z,972.00
2023-02-01T08:17:45.845Z,960.00
2023-02-01T08:18:44.154Z,956.00
2023-02-01T08:19:44.169Z,968.00
2023-02-01T08:20:44.185Z,992.00
2023-02-01T08:21:44.120Z,988.00
2023-02-01T08:22:44.110Z,964.00
2023-02-01T08:23:44.141Z,936.00
2023-02-01T08:24:44.117Z,948.00
2023-02-01T08:25:44.103Z,980.00
2023-02-01T08:26:44.870Z,1060.00
2023-02-01T08:27:44.047Z,1060.00
2023-02-01T08:28:44.428Z,1120.00
2023-02-01T08:29:44.037Z,1212.00
2023-02-01T08:30:44.120Z,1220.00
2023-02-01T08:31:44.041Z,1280.00
2023-02-01T08:32:44.019Z,1304.00
2023-02-01T08:33:44.010Z,1364.00
2023-02-01T08:34:44.025Z,1372.00
2023-02-01T08:35:44.405Z,1380.00
2023-02-01T08:36:43.965Z,1452.00
2023-02-01T08:37:43.986Z,1488.00
2023-02-01T08:38:43.947Z,1508.00
2023-02-01T08:39:45.664Z,1428.00
2023-02-01T08:40:43.941Z,1416.00
2023-02-01T08:41:43.920Z,1388.00
2023-02-01T08:42:43.929Z,1404.00
2023-02-01T08:43:43.902Z,1532.00
2023-02-01T08:44:43.905Z,1576.00
2023-02-01T08:45:43.878Z,1572.00
2023-02-01T08:46:43.930Z,1584.00
2023-02-01T08:47:43.860Z,1576.00
2023-02-01T08:48:43.833Z,1592.00
2023-02-01T08:49:43.839Z,1620.00
2023-02-01T08:50:43.846Z,1640.00
2023-02-01T08:51:43.847Z,1604.00
2023-02-01T08:52:43.778Z,1584.00
2023-02-01T08:53:43.860Z,1608.00
2023-02-01T08:54:43.769Z,1708.00
2023-02-01T08:55:43.793Z,1848.00
2023-02-01T08:56:43.837Z,1976.00
2023-02-01T08:57:43.789Z,2116.00
2023-02-01T08:58:43.775Z,2292.00
2023-02-01T08:59:43.737Z,2420.00
2023-02-01T09:00:43.740Z,2464.00
2023-02-01T09:01:43.768Z,2404.00
2023-02-01T09:02:43.695Z,2416.00
2023-02-01T09:03:43.756Z,2436.00
2023-02-01T09:04:43.708Z,2420.00
2023-02-01T09:05:49.435Z,2352.00
2023-02-01T09:06:43.654Z,2280.00
2023-02-01T09:07:43.644Z,2248.00
2023-02-01T09:08:43.625Z,2244.00
2023-02-01T09:09:43.646Z,2344.00
2023-02-01T09:10:43.634Z,2496.00
2023-02-01T09:11:43.597Z,2508.00
2023-02-01T09:12:43.586Z,2552.00
2023-02-01T09:13:43.585Z,2604.00
2023-02-01T09:14:43.649Z,2452.00
2023-02-01T09:15:43.612Z,2312.00
2023-02-01T09:16:43.529Z,2280.00
2023-02-01T09:17:43.571Z,2404.00
2023-02-01T09:18:55.447Z,2528.00
2023-02-01T09:19:43.529Z,2488.00
2023-02-01T09:20:43.517Z,2428.00
2023-02-01T09:21:43.470Z,2540.00
2023-02-01T09:22:43.499Z,2736.00
2023-02-01T09:23:43.474Z,2828.00
2023-02-01T09:24:43.546Z,2784.00
2023-02-01T09:25:43.447Z,2728.00
2023-02-01T09:26:43.484Z,2696.00
2023-02-01T09:27:43.449Z,2784.00
2023-02-01T09:28:43.448Z,2856.00
2023-02-01T09:29:43.452Z,2908.00
2023-02-01T09:30:43.504Z,2876.00
2023-02-01T09:31:49.757Z,2856.00
2023-02-01T09:32:43.376Z,2900.00
2023-02-01T09:33:43.384Z,2928.00
2023-02-01T09:34:43.375Z,2936.00
2023-02-01T09:35:43.341Z,2936.00
2023-02-01T09:36:43.344Z,3016.00
2023-02-01T09:37:43.313Z,3092.00
2023-02-01T09:38:52.386Z,3132.00
2023-02-01T09:39:43.299Z,3220.00
2023-02-01T09:40:43.995Z,3188.00
2023-02-01T09:41:43.313Z,3208.00
2023-02-01T09:42:43.269Z,3336.00
2023-02-01T09:43:43.286Z,3496.00
2023-02-01T09:44:44.592Z,3532.00
2023-02-01T09:45:43.260Z,3620.00
2023-02-01T09:46:43.245Z,3600.00
2023-02-01T09:47:43.238Z,3608.00
2023-02-01T09:48:43.215Z,3632.00
2023-02-01T09:49:43.988Z,3632.00
2023-02-01T09:50:43.201Z,3692.00
2023-02-01T09:51:43.221Z,3740.00
2023-02-01T09:52:43.171Z,3800.00
2023-02-01T09:53:43.153Z,3692.00
2023-02-01T09:54:43.159Z,3628.00
2023-02-01T09:55:43.137Z,3656.00
2023-02-01T09:56:43.113Z,3596.00
2023-02-01T09:57:43.132Z,3640.00
2023-02-01T09:58:43.135Z,3760.00
2023-02-01T09:59:43.069Z,3716.00
2023-02-01T10:00:43.082Z,3692.00
2023-02-01T10:01:43.109Z,3788.00
2023-02-01T10:02:43.061Z,3832.00
2023-02-01T10:03:43.070Z,3808.00
2023-02-01T10:04:43.031Z,3868.00
2023-02-01T10:05:43.022Z,3944.00
2023-02-01T10:06:43.018Z,3912.00
2023-02-01T10:07:43.025Z,3936.00
2023-02-01T10:08:43.015Z,3908.00
2023-02-01T10:09:42.975Z,3856.00
2023-02-01T10:10:42.967Z,3860.00
2023-02-01T10:11:42.956Z,3848.00
2023-02-01T10:12:42.964Z,3816.00
2023-02-01T10:13:42.947Z,3840.00
2023-02-01T10:14:42.999Z,3808.00
2023-02-01T10:15:42.928Z,3744.00
2023-02-01T10:16:43.043Z,3788.00
2023-02-01T10:17:42.947Z,3808.00
2023-02-01T10:18:42.867Z,3964.00
2023-02-01T10:19:42.887Z,3980.00
2023-02-01T10:20:42.913Z,3912.00
2023-02-01T10:21:42.837Z,3760.00
2023-02-01T10:23:10.324Z,3656.00
2023-02-01T10:23:42.820Z,3672.00
2023-02-01T10:24:42.801Z,3456.00
2023-02-01T10:25:42.830Z,3468.00
2023-02-01T10:26:42.848Z,3504.00
2023-02-01T10:27:42.781Z,4220.00
2023-02-01T10:28:42.773Z,4320.00
2023-02-01T10:29:42.808Z,4060.00
2023-02-01T10:30:42.807Z,4136.00
2023-02-01T10:31:42.984Z,4340.00
2023-02-01T10:32:42.739Z,4272.00
2023-02-01T10:33:42.749Z,4140.00
2023-02-01T10:34:42.747Z,4176.00
2023-02-01T10:35:42.712Z,4100.00
2023-02-01T10:36:42.699Z,4032.00
2023-02-01T10:37:42.736Z,4244.00
2023-02-01T10:38:42.691Z,4400.00
2023-02-01T10:39:42.677Z,4276.00
2023-02-01T10:40:42.667Z,4124.00
2023-02-01T10:41:42.653Z,3996.00
2023-02-01T10:42:42.632Z,3932.00
2023-02-01T10:43:42.678Z,4016.00
2023-02-01T10:44:42.608Z,3836.00
2023-02-01T10:45:42.609Z,3844.00
2023-02-01T10:46:42.667Z,4008.00
2023-02-01T10:47:42.591Z,4000.00
2023-02-01T10:48:42.564Z,3900.00
2023-02-01T10:49:42.575Z,3920.00
2023-02-01T10:50:42.541Z,3908.00
2023-02-01T10:51:43.381Z,3960.00
2023-02-01T10:52:42.531Z,3896.00
2023-02-01T10:53:42.543Z,3648.00
2023-02-01T10:54:42.551Z,3536.00
2023-02-01T10:55:42.583Z,3348.00
2023-02-01T10:56:42.502Z,3300.00
2023-02-01T10:57:42.602Z,3380.00
2023-02-01T10:58:42.456Z,3544.00
2023-02-01T10:59:44.242Z,3808.00
2023-02-01T11:00:42.479Z,3956.00
2023-02-01T11:01:42.514Z,4032.00
2023-02-01T11:02:42.504Z,4024.00
2023-02-01T11:03:42.389Z,4060.00
2023-02-01T11:04:42.412Z,4180.00
2023-02-01T11:05:44.070Z,4104.00
2023-02-01T11:06:42.398Z,4176.00
2023-02-01T11:07:42.363Z,4152.00
2023-02-01T11:08:42.360Z,4164.00
2023-02-01T11:09:42.354Z,4008.00
2023-02-01T11:10:42.326Z,3892.00
2023-02-01T11:11:42.329Z,3904.00
2023-02-01T11:12:42.338Z,3672.00
2023-02-01T11:13:42.290Z,3596.00
2023-02-01T11:14:42.290Z,3732.00
2023-02-01T11:15:42.321Z,3692.00
2023-02-01T11:16:42.293Z,3648.00
2023-02-01T11:17:42.260Z,3648.00
2023-02-01T11:18:42.240Z,3572.00
2023-02-01T11:19:42.218Z,3472.00
2023-02-01T11:20:42.245Z,3552.00
2023-02-01T11:21:42.215Z,3768.00
2023-02-01T11:22:42.202Z,3724.00
2023-02-01T11:23:42.187Z,3708.00
2023-02-01T11:24:42.178Z,3780.00
2023-02-01T11:25:42.181Z,3740.00
2023-02-01T11:26:42.267Z,3608.00
2023-02-01T11:27:53.216Z,3564.00
2023-02-01T11:28:42.154Z,3772.00
2023-02-01T11:29:42.123Z,3632.00
2023-02-01T11:30:42.172Z,3604.00
2023-02-01T11:31:42.175Z,3584.00
2023-02-01T11:32:42.112Z,3508.00
2023-02-01T11:33:42.081Z,3528.00
2023-02-01T11:34:42.102Z,3560.00
2023-02-01T11:35:42.090Z,3596.00
2023-02-01T11:36:42.050Z,3652.00
2023-02-01T11:37:42.036Z,3564.00
2023-02-01T11:38:42.025Z,3692.00
2023-02-01T11:39:42.042Z,3812.00
2023-02-01T11:40:42.021Z,3968.00
2023-02-01T11:41:41.991Z,4072.00
2023-02-01T11:42:41.969Z,4168.00
2023-02-01T11:43:41.983Z,4144.00
2023-02-01T11:44:41.982Z,3664.00
2023-02-01T11:45:41.969Z,3820.00
2023-02-01T11:46:42.028Z,4020.00
2023-02-01T11:47:41.962Z,3752.00
2023-02-01T11:48:41.941Z,4044.00
2023-02-01T11:49:41.905Z,4248.00
2023-02-01T11:50:41.958Z,4232.00
2023-02-01T11:51:41.883Z,4128.00
2023-02-01T11:52:41.972Z,3924.00
2023-02-01T11:53:41.884Z,3684.00
2023-02-01T11:54:41.915Z,3468.00
2023-02-01T11:55:41.956Z,3504.00
2023-02-01T11:56:41.832Z,3440.00
2023-02-01T11:57:41.844Z,3372.00
2023-02-01T11:58:41.828Z,3300.00
2023-02-01T11:59:48.677Z,3140.00
2023-02-01T12:00:41.828Z,2960.00
2023-02-01T12:01:41.891Z,2904.00
2023-02-01T12:02:41.793Z,3056.00
2023-02-01T12:03:41.837Z,3064.00
2023-02-01T12:04:41.737Z,3056.00
2023-02-01T12:05:41.749Z,3064.00
2023-02-01T12:06:41.731Z,3084.00
2023-02-01T12:07:41.714Z,3084.00
2023-02-01T12:08:41.714Z,3096.00
2023-02-01T12:09:41.790Z,3148.00
2023-02-01T12:10:41.683Z,3084.00
2023-02-01T12:11:41.702Z,3108.00
2023-02-01T12:12:41.724Z,3060.00
2023-02-01T12:13:41.683Z,2972.00
2023-02-01T12:14:41.647Z,2980.00
2023-02-01T12:15:41.641Z,3124.00
2023-02-01T12:16:41.663Z,3104.00
2023-02-01T12:17:41.619Z,3224.00
2023-02-01T12:18:41.714Z,3224.00
2023-02-01T12:19:41.600Z,3120.00
2023-02-01T12:20:41.581Z,3008.00
2023-02-01T12:21:41.583Z,2860.00
2023-02-01T12:22:41.575Z,2812.00
2023-02-01T12:23:41.568Z,2796.00
2023-02-01T12:24:41.560Z,2784.00
2023-02-01T12:25:41.529Z,2768.00
2023-02-01T12:26:41.567Z,2756.00
2023-02-01T12:27:41.518Z,2740.00
2023-02-01T12:28:41.490Z,2716.00
2023-02-01T12:29:41.510Z,2704.00
2023-02-01T12:30:41.538Z,2728.00
2023-02-01T12:31:41.542Z,2736.00
2023-02-01T12:32:41.473Z,2696.00
2023-02-01T12:33:41.444Z,2656.00
2023-02-01T12:34:41.455Z,2628.00
2023-02-01T12:35:41.415Z,2616.00
2023-02-01T12:36:41.418Z,2608.00
2023-02-01T12:37:41.541Z,2584.00
2023-02-01T12:38:41.395Z,2560.00
2023-02-01T12:39:41.389Z,2544.00
2023-02-01T12:40:41.431Z,2524.00
2023-02-01T12:41:41.398Z,2516.00
2023-02-01T12:42:41.379Z,2512.00
2023-02-01T12:43:41.441Z,2508.00
2023-02-01T12:44:41.326Z,2492.00
2023-02-01T12:45:41.321Z,2468.00
2023-02-01T12:46:41.355Z,2456.00
2023-02-01T12:47:41.295Z,2440.00
2023-02-01T12:48:42.995Z,2424.00
2023-02-01T12:49:41.369Z,2404.00